sensor_id;sensor_type;location;lat;lon;timestamp;P1;durP1;ratioP1;P2;durP2;ratioP2
20397;SDS011;10358;49.590;11.030;2023-04-03T00:01:23;2.83;;;1.80;;
20397;SDS011;10358;49.590;11.030;2023-04-03T00:03:49;2.23;;;1.77;;
20397;SDS011;10358;49.590;11.030;2023-04-03T00:06:15;3.80;;;1.80;;
20397;SDS011;10358;49.590;11.030;2023-04-03T00:08:40;3.47;;;1.77;;
20397;SDS011;10358;49.590;11.030;2023-04-03T00:11:06;4.00;;;2.20;;
20397;SDS011;10358;49.590;11.030;2023-04-03T00:13:32;2.90;;;1.80;;
20397;SDS011;10358;49.590;11.030;2023-04-03T00:15:58;3.17;;;1.90;;
20397;SDS011;10358;49.590;11.030;2023-04-03T00:18:24;2.50;;;1.77;;
20397;SDS011;10358;49.590;11.030;2023-04-03T00:20:50;3.43;;;1.70;;
20397;SDS011;10358;49.590;11.030;2023-04-03T00:23:16;2.03;;;1.50;;
20397;SDS011;10358;49.590;11.030;2023-04-03T00:25:42;2.80;;;1.70;;
20397;SDS011;10358;49.590;11.030;2023-04-03T00:28:08;3.47;;;1.90;;
20397;SDS011;10358;49.590;11.030;2023-04-03T00:30:34;2.53;;;1.73;;
20397;SDS011;10358;49.590;11.030;2023-04-03T00:33:00;2.37;;;1.90;;
20397;SDS011;10358;49.590;11.030;2023-04-03T00:35:26;2.07;;;1.53;;
20397;SDS011;10358;49.590;11.030;2023-04-03T00:37:52;2.00;;;1.70;;
20397;SDS011;10358;49.590;11.030;2023-04-03T00:40:19;2.87;;;1.60;;
20397;SDS011;10358;49.590;11.030;2023-04-03T00:42:47;2.20;;;1.60;;
20397;SDS011;10358;49.590;11.030;2023-04-03T00:45:31;3.07;;;1.70;;
20397;SDS011;10358;49.590;11.030;2023-04-03T00:48:02;3.73;;;1.67;;
20397;SDS011;10358;49.590;11.030;2023-04-03T00:50:30;1.87;;;1.50;;
20397;SDS011;10358;49.590;11.030;2023-04-03T00:52:57;3.70;;;1.97;;
20397;SDS011;10358;49.590;11.030;2023-04-03T00:55:23;4.70;;;1.93;;
20397;SDS011;10358;49.590;11.030;2023-04-03T00:57:50;2.03;;;1.73;;
20397;SDS011;10358;49.590;11.030;2023-04-03T01:00:18;3.50;;;1.93;;
20397;SDS011;10358;49.590;11.030;2023-04-03T01:02:45;2.67;;;1.87;;
20397;SDS011;10358;49.590;11.030;2023-04-03T01:05:10;2.40;;;1.73;;
20397;SDS011;10358;49.590;11.030;2023-04-03T01:07:37;5.07;;;1.90;;
20397;SDS011;10358;49.590;11.030;2023-04-03T01:10:05;2.10;;;1.70;;
20397;SDS011;10358;49.590;11.030;2023-04-03T01:12:38;2.70;;;1.80;;
20397;SDS011;10358;49.590;11.030;2023-04-03T01:15:12;1.97;;;1.63;;
20397;SDS011;10358;49.590;11.030;2023-04-03T01:17:44;2.30;;;1.63;;
20397;SDS011;10358;49.590;11.030;2023-04-03T01:25:27;3.43;;;1.80;;
20397;SDS011;10358;49.590;11.030;2023-04-03T01:27:53;3.23;;;1.90;;
20397;SDS011;10358;49.590;11.030;2023-04-03T01:30:19;3.07;;;1.90;;
20397;SDS011;10358;49.590;11.030;2023-04-03T01:32:48;1.80;;;1.40;;
20397;SDS011;10358;49.590;11.030;2023-04-03T01:35:14;3.50;;;1.97;;
20397;SDS011;10358;49.590;11.030;2023-04-03T01:37:39;3.10;;;1.83;;
20397;SDS011;10358;49.590;11.030;2023-04-03T01:40:05;4.77;;;2.10;;
20397;SDS011;10358;49.590;11.030;2023-04-03T01:42:32;2.80;;;1.87;;
20397;SDS011;10358;49.590;11.030;2023-04-03T01:44:57;2.90;;;1.97;;
20397;SDS011;10358;49.590;11.030;2023-04-03T01:47:23;3.80;;;1.90;;
20397;SDS011;10358;49.590;11.030;2023-04-03T01:49:48;5.77;;;2.23;;
20397;SDS011;10358;49.590;11.030;2023-04-03T01:52:14;6.83;;;1.90;;
20397;SDS011;10358;49.590;11.030;2023-04-03T01:54:39;4.33;;;1.73;;
20397;SDS011;10358;49.590;11.030;2023-04-03T01:57:05;4.60;;;2.30;;
20397;SDS011;10358;49.590;11.030;2023-04-03T01:59:31;4.53;;;1.83;;
20397;SDS011;10358;49.590;11.030;2023-04-03T02:01:56;2.47;;;1.60;;
20397;SDS011;10358;49.590;11.030;2023-04-03T02:04:22;2.73;;;1.90;;
20397;SDS011;10358;49.590;11.030;2023-04-03T02:06:48;3.57;;;1.80;;
20397;SDS011;10358;49.590;11.030;2023-04-03T02:09:14;2.87;;;1.83;;
20397;SDS011;10358;49.590;11.030;2023-04-03T02:11:39;2.47;;;1.83;;
20397;SDS011;10358;49.590;11.030;2023-04-03T02:14:05;5.00;;;1.90;;
20397;SDS011;10358;49.590;11.030;2023-04-03T02:16:31;2.80;;;1.90;;
20397;SDS011;10358;49.590;11.030;2023-04-03T02:18:56;5.03;;;2.27;;
20397;SDS011;10358;49.590;11.030;2023-04-03T02:21:22;5.20;;;1.90;;
20397;SDS011;10358;49.590;11.030;2023-04-03T02:23:48;4.53;;;1.87;;
20397;SDS011;10358;49.590;11.030;2023-04-03T02:26:14;5.27;;;2.00;;
20397;SDS011;10358;49.590;11.030;2023-04-03T02:28:41;3.70;;;1.63;;
20397;SDS011;10358;49.590;11.030;2023-04-03T02:31:07;3.57;;;2.00;;
20397;SDS011;10358;49.590;11.030;2023-04-03T02:33:34;6.10;;;2.10;;
20397;SDS011;10358;49.590;11.030;2023-04-03T02:36:02;4.33;;;2.00;;
20397;SDS011;10358;49.590;11.030;2023-04-03T02:38:31;3.10;;;1.83;;
20397;SDS011;10358;49.590;11.030;2023-04-03T02:41:01;5.93;;;2.03;;
20397;SDS011;10358;49.590;11.030;2023-04-03T02:43:27;4.53;;;2.00;;
20397;SDS011;10358;49.590;11.030;2023-04-03T02:45:52;2.43;;;1.70;;
20397;SDS011;10358;49.590;11.030;2023-04-03T02:48:18;3.47;;;2.00;;
20397;SDS011;10358;49.590;11.030;2023-04-03T02:50:43;2.70;;;2.00;;
20397;SDS011;10358;49.590;11.030;2023-04-03T02:53:09;2.60;;;1.80;;
20397;SDS011;10358;49.590;11.030;2023-04-03T02:55:35;3.10;;;2.10;;
20397;SDS011;10358;49.590;11.030;2023-04-03T02:58:00;3.67;;;1.90;;
20397;SDS011;10358;49.590;11.030;2023-04-03T03:00:26;4.17;;;2.03;;
20397;SDS011;10358;49.590;11.030;2023-04-03T03:02:51;4.43;;;2.20;;
20397;SDS011;10358;49.590;11.030;2023-04-03T03:05:17;4.93;;;2.20;;
20397;SDS011;10358;49.590;11.030;2023-04-03T03:07:43;6.67;;;2.30;;
20397;SDS011;10358;49.590;11.030;2023-04-03T03:10:08;5.50;;;1.97;;
20397;SDS011;10358;49.590;11.030;2023-04-03T03:12:34;3.70;;;2.23;;
20397;SDS011;10358;49.590;11.030;2023-04-03T03:15:00;4.57;;;2.27;;
20397;SDS011;10358;49.590;11.030;2023-04-03T03:17:25;6.83;;;2.20;;
20397;SDS011;10358;49.590;11.030;2023-04-03T03:19:51;4.10;;;2.50;;
20397;SDS011;10358;49.590;11.030;2023-04-03T03:22:16;4.70;;;2.53;;
20397;SDS011;10358;49.590;11.030;2023-04-03T03:24:42;5.30;;;2.30;;
20397;SDS011;10358;49.590;11.030;2023-04-03T03:27:08;6.77;;;2.40;;
20397;SDS011;10358;49.590;11.030;2023-04-03T03:29:33;7.80;;;2.60;;
20397;SDS011;10358;49.590;11.030;2023-04-03T03:31:59;5.13;;;2.60;;
20397;SDS011;10358;49.590;11.030;2023-04-03T03:34:24;6.43;;;2.60;;
20397;SDS011;10358;49.590;11.030;2023-04-03T03:36:50;8.50;;;2.67;;
20397;SDS011;10358;49.590;11.030;2023-04-03T03:39:15;5.73;;;2.40;;
20397;SDS011;10358;49.590;11.030;2023-04-03T03:41:41;6.03;;;2.40;;
20397;SDS011;10358;49.590;11.030;2023-04-03T03:44:07;4.97;;;2.43;;
20397;SDS011;10358;49.590;11.030;2023-04-03T03:46:32;7.30;;;2.60;;
20397;SDS011;10358;49.590;11.030;2023-04-03T03:48:58;6.90;;;3.10;;
20397;SDS011;10358;49.590;11.030;2023-04-03T03:51:24;4.67;;;2.47;;
20397;SDS011;10358;49.590;11.030;2023-04-03T03:53:49;6.13;;;2.67;;
20397;SDS011;10358;49.590;11.030;2023-04-03T03:56:15;4.27;;;2.30;;
20397;SDS011;10358;49.590;11.030;2023-04-03T03:58:40;5.27;;;2.77;;
20397;SDS011;10358;49.590;11.030;2023-04-03T04:01:06;8.23;;;2.70;;
20397;SDS011;10358;49.590;11.030;2023-04-03T04:03:32;6.73;;;2.70;;
20397;SDS011;10358;49.590;11.030;2023-04-03T04:05:58;4.50;;;2.40;;
20397;SDS011;10358;49.590;11.030;2023-04-03T04:08:23;7.30;;;2.93;;
20397;SDS011;10358;49.590;11.030;2023-04-03T04:10:49;5.87;;;2.70;;
20397;SDS011;10358;49.590;11.030;2023-04-03T04:13:15;7.70;;;3.03;;
20397;SDS011;10358;49.590;11.030;2023-04-03T04:15:41;6.90;;;2.53;;
20397;SDS011;10358;49.590;11.030;2023-04-03T04:18:07;5.53;;;2.93;;
20397;SDS011;10358;49.590;11.030;2023-04-03T04:20:33;9.33;;;2.77;;
20397;SDS011;10358;49.590;11.030;2023-04-03T04:22:58;10.53;;;2.87;;
20397;SDS011;10358;49.590;11.030;2023-04-03T04:25:24;7.67;;;3.20;;
20397;SDS011;10358;49.590;11.030;2023-04-03T04:27:50;5.10;;;2.87;;
20397;SDS011;10358;49.590;11.030;2023-04-03T04:30:15;5.30;;;2.90;;
20397;SDS011;10358;49.590;11.030;2023-04-03T04:32:41;5.87;;;2.80;;
20397;SDS011;10358;49.590;11.030;2023-04-03T04:35:07;10.73;;;4.37;;
20397;SDS011;10358;49.590;11.030;2023-04-03T04:37:32;4.80;;;2.67;;
20397;SDS011;10358;49.590;11.030;2023-04-03T04:39:58;7.90;;;2.90;;
20397;SDS011;10358;49.590;11.030;2023-04-03T04:42:23;7.97;;;2.90;;
20397;SDS011;10358;49.590;11.030;2023-04-03T04:44:49;4.43;;;2.97;;
20397;SDS011;10358;49.590;11.030;2023-04-03T04:47:15;7.83;;;2.83;;
20397;SDS011;10358;49.590;11.030;2023-04-03T04:49:41;11.63;;;3.10;;
20397;SDS011;10358;49.590;11.030;2023-04-03T04:52:06;6.93;;;2.73;;
20397;SDS011;10358;49.590;11.030;2023-04-03T04:54:32;4.43;;;2.83;;
20397;SDS011;10358;49.590;11.030;2023-04-03T04:56:58;8.93;;;2.90;;
20397;SDS011;10358;49.590;11.030;2023-04-03T04:59:23;5.97;;;2.63;;
20397;SDS011;10358;49.590;11.030;2023-04-03T05:01:49;6.23;;;3.07;;
20397;SDS011;10358;49.590;11.030;2023-04-03T05:04:15;8.57;;;3.10;;
20397;SDS011;10358;49.590;11.030;2023-04-03T05:06:41;6.27;;;2.87;;
20397;SDS011;10358;49.590;11.030;2023-04-03T05:09:06;4.50;;;2.73;;
20397;SDS011;10358;49.590;11.030;2023-04-03T05:11:32;12.63;;;3.00;;
20397;SDS011;10358;49.590;11.030;2023-04-03T05:13:58;7.43;;;2.80;;
20397;SDS011;10358;49.590;11.030;2023-04-03T05:16:23;5.03;;;2.90;;
20397;SDS011;10358;49.590;11.030;2023-04-03T05:18:50;5.10;;;3.10;;
20397;SDS011;10358;49.590;11.030;2023-04-03T05:21:15;6.80;;;2.93;;
20397;SDS011;10358;49.590;11.030;2023-04-03T05:23:43;5.43;;;3.00;;
20397;SDS011;10358;49.590;11.030;2023-04-03T05:26:08;10.30;;;3.20;;
20397;SDS011;10358;49.590;11.030;2023-04-03T05:28:34;7.17;;;2.87;;
20397;SDS011;10358;49.590;11.030;2023-04-03T05:30:59;5.07;;;3.10;;
20397;SDS011;10358;49.590;11.030;2023-04-03T05:33:25;6.97;;;2.90;;
20397;SDS011;10358;49.590;11.030;2023-04-03T05:35:51;10.70;;;3.10;;
20397;SDS011;10358;49.590;11.030;2023-04-03T05:38:17;8.50;;;2.67;;
20397;SDS011;10358;49.590;11.030;2023-04-03T05:40:43;5.60;;;3.10;;
20397;SDS011;10358;49.590;11.030;2023-04-03T05:43:09;7.67;;;2.80;;
20397;SDS011;10358;49.590;11.030;2023-04-03T05:45:35;6.80;;;2.63;;
20397;SDS011;10358;49.590;11.030;2023-04-03T05:48:00;9.90;;;3.30;;
20397;SDS011;10358;49.590;11.030;2023-04-03T05:50:26;5.20;;;2.63;;
20397;SDS011;10358;49.590;11.030;2023-04-03T05:52:52;9.43;;;2.83;;
20397;SDS011;10358;49.590;11.030;2023-04-03T05:55:21;6.80;;;2.13;;
20397;SDS011;10358;49.590;11.030;2023-04-03T05:57:47;6.43;;;3.30;;
20397;SDS011;10358;49.590;11.030;2023-04-03T06:00:13;5.77;;;2.80;;
20397;SDS011;10358;49.590;11.030;2023-04-03T06:02:42;5.77;;;2.43;;
20397;SDS011;10358;49.590;11.030;2023-04-03T06:05:08;5.40;;;2.40;;
20397;SDS011;10358;49.590;11.030;2023-04-03T06:07:36;7.67;;;2.70;;
20397;SDS011;10358;49.590;11.030;2023-04-03T06:10:02;8.83;;;2.60;;
20397;SDS011;10358;49.590;11.030;2023-04-03T06:12:29;12.43;;;3.00;;
20397;SDS011;10358;49.590;11.030;2023-04-03T06:14:54;4.97;;;2.60;;
20397;SDS011;10358;49.590;11.030;2023-04-03T06:17:20;5.93;;;2.67;;
20397;SDS011;10358;49.590;11.030;2023-04-03T06:19:46;6.47;;;2.63;;
20397;SDS011;10358;49.590;11.030;2023-04-03T06:22:12;6.27;;;2.80;;
20397;SDS011;10358;49.590;11.030;2023-04-03T06:24:38;7.13;;;2.90;;
20397;SDS011;10358;49.590;11.030;2023-04-03T06:27:04;6.83;;;2.70;;
20397;SDS011;10358;49.590;11.030;2023-04-03T06:29:30;6.57;;;2.97;;
20397;SDS011;10358;49.590;11.030;2023-04-03T06:31:56;3.60;;;2.13;;
20397;SDS011;10358;49.590;11.030;2023-04-03T06:34:22;4.50;;;2.97;;
20397;SDS011;10358;49.590;11.030;2023-04-03T06:36:47;6.97;;;2.40;;
20397;SDS011;10358;49.590;11.030;2023-04-03T06:39:17;6.57;;;2.60;;
20397;SDS011;10358;49.590;11.030;2023-04-03T06:41:45;9.77;;;3.30;;
20397;SDS011;10358;49.590;11.030;2023-04-03T06:44:11;6.50;;;2.60;;
20397;SDS011;10358;49.590;11.030;2023-04-03T06:46:38;4.37;;;2.47;;
20397;SDS011;10358;49.590;11.030;2023-04-03T06:49:04;5.57;;;3.10;;
20397;SDS011;10358;49.590;11.030;2023-04-03T06:51:32;7.73;;;2.93;;
20397;SDS011;10358;49.590;11.030;2023-04-03T06:53:59;8.47;;;3.10;;
20397;SDS011;10358;49.590;11.030;2023-04-03T06:56:25;8.20;;;2.90;;
20397;SDS011;10358;49.590;11.030;2023-04-03T06:58:52;14.47;;;2.90;;
20397;SDS011;10358;49.590;11.030;2023-04-03T07:01:22;6.10;;;2.70;;
20397;SDS011;10358;49.590;11.030;2023-04-03T07:03:51;9.10;;;3.13;;
20397;SDS011;10358;49.590;11.030;2023-04-03T07:06:17;6.10;;;2.83;;
20397;SDS011;10358;49.590;11.030;2023-04-03T07:08:43;6.03;;;2.80;;
20397;SDS011;10358;49.590;11.030;2023-04-03T07:11:09;5.27;;;2.70;;
20397;SDS011;10358;49.590;11.030;2023-04-03T07:13:36;5.17;;;2.83;;
20397;SDS011;10358;49.590;11.030;2023-04-03T07:16:02;7.53;;;2.57;;
20397;SDS011;10358;49.590;11.030;2023-04-03T07:18:29;5.30;;;2.90;;
20397;SDS011;10358;49.590;11.030;2023-04-03T07:20:55;7.10;;;2.70;;
20397;SDS011;10358;49.590;11.030;2023-04-03T07:23:21;6.37;;;3.00;;
20397;SDS011;10358;49.590;11.030;2023-04-03T07:25:48;8.37;;;2.90;;
20397;SDS011;10358;49.590;11.030;2023-04-03T07:28:15;6.87;;;3.10;;
20397;SDS011;10358;49.590;11.030;2023-04-03T07:30:43;6.73;;;3.07;;
20397;SDS011;10358;49.590;11.030;2023-04-03T07:33:13;5.83;;;2.80;;
20397;SDS011;10358;49.590;11.030;2023-04-03T07:35:40;6.37;;;3.00;;
20397;SDS011;10358;49.590;11.030;2023-04-03T07:38:07;8.27;;;2.77;;
20397;SDS011;10358;49.590;11.030;2023-04-03T07:40:33;10.47;;;2.80;;
20397;SDS011;10358;49.590;11.030;2023-04-03T07:42:58;4.67;;;2.40;;
20397;SDS011;10358;49.590;11.030;2023-04-03T07:45:24;6.07;;;2.63;;
20397;SDS011;10358;49.590;11.030;2023-04-03T07:47:50;5.00;;;2.90;;
20397;SDS011;10358;49.590;11.030;2023-04-03T07:50:16;7.23;;;3.03;;
20397;SDS011;10358;49.590;11.030;2023-04-03T07:52:42;7.13;;;2.60;;
20397;SDS011;10358;49.590;11.030;2023-04-03T07:55:08;5.90;;;2.57;;
20397;SDS011;10358;49.590;11.030;2023-04-03T07:57:33;7.30;;;2.60;;
20397;SDS011;10358;49.590;11.030;2023-04-03T08:00:00;4.20;;;2.20;;
20397;SDS011;10358;49.590;11.030;2023-04-03T08:02:26;7.00;;;2.70;;
20397;SDS011;10358;49.590;11.030;2023-04-03T08:04:51;4.17;;;2.40;;
20397;SDS011;10358;49.590;11.030;2023-04-03T08:07:17;6.43;;;2.43;;
20397;SDS011;10358;49.590;11.030;2023-04-03T08:09:42;6.23;;;2.23;;
20397;SDS011;10358;49.590;11.030;2023-04-03T08:12:09;5.57;;;2.73;;
20397;SDS011;10358;49.590;11.030;2023-04-03T08:14:36;7.60;;;2.90;;
20397;SDS011;10358;49.590;11.030;2023-04-03T08:17:02;4.33;;;2.50;;
20397;SDS011;10358;49.590;11.030;2023-04-03T08:19:30;3.17;;;2.07;;
20397;SDS011;10358;49.590;11.030;2023-04-03T08:21:55;4.10;;;2.27;;
20397;SDS011;10358;49.590;11.030;2023-04-03T08:24:23;5.20;;;2.27;;
20397;SDS011;10358;49.590;11.030;2023-04-03T08:26:49;5.90;;;2.50;;
20397;SDS011;10358;49.590;11.030;2023-04-03T08:29:15;5.77;;;2.83;;
20397;SDS011;10358;49.590;11.030;2023-04-03T08:31:40;8.27;;;2.60;;
20397;SDS011;10358;49.590;11.030;2023-04-03T08:34:06;5.33;;;2.73;;
20397;SDS011;10358;49.590;11.030;2023-04-03T08:36:31;3.63;;;2.47;;
20397;SDS011;10358;49.590;11.030;2023-04-03T08:38:57;8.63;;;2.73;;
20397;SDS011;10358;49.590;11.030;2023-04-03T08:47:11;5.67;;;2.40;;
20397;SDS011;10358;49.590;11.030;2023-04-03T08:50:10;4.13;;;2.30;;
20397;SDS011;10358;49.590;11.030;2023-04-03T08:52:46;5.50;;;2.30;;
20397;SDS011;10358;49.590;11.030;2023-04-03T08:57:56;6.47;;;2.47;;
20397;SDS011;10358;49.590;11.030;2023-04-03T09:00:30;5.40;;;2.40;;
20397;SDS011;10358;49.590;11.030;2023-04-03T09:03:10;5.33;;;1.90;;
20397;SDS011;10358;49.590;11.030;2023-04-03T09:08:19;5.73;;;2.50;;
20397;SDS011;10358;49.590;11.030;2023-04-03T09:10:52;4.23;;;2.30;;
20397;SDS011;10358;49.590;11.030;2023-04-03T09:13:35;6.17;;;2.50;;
20397;SDS011;10358;49.590;11.030;2023-04-03T09:19:15;5.43;;;2.27;;
20397;SDS011;10358;49.590;11.030;2023-04-03T09:24:41;9.27;;;3.17;;
20397;SDS011;10358;49.590;11.030;2023-04-03T09:27:09;5.40;;;2.20;;
20397;SDS011;10358;49.590;11.030;2023-04-03T09:29:39;3.30;;;2.00;;
20397;SDS011;10358;49.590;11.030;2023-04-03T09:32:17;4.77;;;2.00;;
20397;SDS011;10358;49.590;11.030;2023-04-03T09:34:45;5.77;;;2.03;;
20397;SDS011;10358;49.590;11.030;2023-04-03T09:37:32;3.73;;;1.83;;
20397;SDS011;10358;49.590;11.030;2023-04-03T09:39:58;4.33;;;1.87;;
20397;SDS011;10358;49.590;11.030;2023-04-03T09:42:24;2.97;;;1.93;;
20397;SDS011;10358;49.590;11.030;2023-04-03T09:44:57;4.13;;;1.70;;
20397;SDS011;10358;49.590;11.030;2023-04-03T09:52:37;4.87;;;1.87;;
20397;SDS011;10358;49.590;11.030;2023-04-03T09:55:07;3.47;;;2.20;;
20397;SDS011;10358;49.590;11.030;2023-04-03T09:57:38;3.90;;;1.90;;
20397;SDS011;10358;49.590;11.030;2023-04-03T10:00:04;4.40;;;2.10;;
20397;SDS011;10358;49.590;11.030;2023-04-03T10:02:32;5.93;;;2.03;;
20397;SDS011;10358;49.590;11.030;2023-04-03T10:04:59;3.77;;;1.97;;
20397;SDS011;10358;49.590;11.030;2023-04-03T10:07:29;4.87;;;2.10;;
20397;SDS011;10358;49.590;11.030;2023-04-03T10:10:15;4.73;;;1.90;;
20397;SDS011;10358;49.590;11.030;2023-04-03T10:12:47;4.90;;;2.00;;
20397;SDS011;10358;49.590;11.030;2023-04-03T10:15:14;7.43;;;2.20;;
20397;SDS011;10358;49.590;11.030;2023-04-03T10:17:48;4.20;;;2.00;;
20397;SDS011;10358;49.590;11.030;2023-04-03T10:26:10;4.87;;;1.93;;
20397;SDS011;10358;49.590;11.030;2023-04-03T10:28:48;5.47;;;2.30;;
20397;SDS011;10358;49.590;11.030;2023-04-03T10:31:25;3.67;;;2.07;;
20397;SDS011;10358;49.590;11.030;2023-04-03T10:34:06;7.33;;;2.30;;
20397;SDS011;10358;49.590;11.030;2023-04-03T10:39:32;4.40;;;2.20;;
20397;SDS011;10358;49.590;11.030;2023-04-03T10:45:03;4.90;;;2.20;;
20397;SDS011;10358;49.590;11.030;2023-04-03T10:53:12;4.73;;;2.10;;
20397;SDS011;10358;49.590;11.030;2023-04-03T10:55:52;10.80;;;2.50;;
20397;SDS011;10358;49.590;11.030;2023-04-03T10:58:28;3.00;;;2.00;;
20397;SDS011;10358;49.590;11.030;2023-04-03T11:00:59;6.43;;;2.40;;
20397;SDS011;10358;49.590;11.030;2023-04-03T11:03:30;2.87;;;1.90;;
20397;SDS011;10358;49.590;11.030;2023-04-03T11:06:01;3.70;;;2.10;;
20397;SDS011;10358;49.590;11.030;2023-04-03T11:11:19;8.37;;;2.30;;
20397;SDS011;10358;49.590;11.030;2023-04-03T11:16:52;4.47;;;2.10;;
20397;SDS011;10358;49.590;11.030;2023-04-03T11:19:44;5.50;;;2.13;;
20397;SDS011;10358;49.590;11.030;2023-04-03T11:27:41;5.27;;;2.10;;
20397;SDS011;10358;49.590;11.030;2023-04-03T11:30:18;5.17;;;2.07;;
20397;SDS011;10358;49.590;11.030;2023-04-03T11:32:56;5.50;;;2.00;;
20397;SDS011;10358;49.590;11.030;2023-04-03T11:35:30;3.07;;;1.83;;
20397;SDS011;10358;49.590;11.030;2023-04-03T11:37:57;4.10;;;2.13;;
20397;SDS011;10358;49.590;11.030;2023-04-03T11:40:26;4.43;;;2.00;;
20397;SDS011;10358;49.590;11.030;2023-04-03T11:47:59;5.07;;;2.10;;
20397;SDS011;10358;49.590;11.030;2023-04-03T12:03:32;4.07;;;1.70;;
20397;SDS011;10358;49.590;11.030;2023-04-03T12:26:30;4.77;;;1.90;;
20397;SDS011;10358;49.590;11.030;2023-04-03T12:29:23;3.40;;;1.80;;
20397;SDS011;10358;49.590;11.030;2023-04-03T12:35:03;4.13;;;1.67;;
20397;SDS011;10358;49.590;11.030;2023-04-03T12:37:54;2.77;;;1.60;;
20397;SDS011;10358;49.590;11.030;2023-04-03T12:40:48;3.67;;;1.70;;
20397;SDS011;10358;49.590;11.030;2023-04-03T12:48:34;5.13;;;1.67;;
20397;SDS011;10358;49.590;11.030;2023-04-03T12:51:09;3.40;;;1.50;;
20397;SDS011;10358;49.590;11.030;2023-04-03T12:53:40;4.37;;;1.80;;
20397;SDS011;10358;49.590;11.030;2023-04-03T12:58:46;3.90;;;1.80;;
20397;SDS011;10358;49.590;11.030;2023-04-03T13:01:22;3.40;;;1.67;;
20397;SDS011;10358;49.590;11.030;2023-04-03T13:03:54;3.83;;;1.60;;
20397;SDS011;10358;49.590;11.030;2023-04-03T13:06:23;6.93;;;1.97;;
20397;SDS011;10358;49.590;11.030;2023-04-03T13:08:56;3.33;;;1.73;;
20397;SDS011;10358;49.590;11.030;2023-04-03T13:11:24;5.07;;;1.90;;
20397;SDS011;10358;49.590;11.030;2023-04-03T13:13:59;5.57;;;1.57;;
20397;SDS011;10358;49.590;11.030;2023-04-03T13:16:30;3.77;;;1.60;;
20397;SDS011;10358;49.590;11.030;2023-04-03T13:18:57;4.30;;;1.80;;
20397;SDS011;10358;49.590;11.030;2023-04-03T13:21:26;3.13;;;1.60;;
20397;SDS011;10358;49.590;11.030;2023-04-03T13:23:57;4.03;;;1.70;;
20397;SDS011;10358;49.590;11.030;2023-04-03T13:26:26;4.87;;;1.83;;
20397;SDS011;10358;49.590;11.030;2023-04-03T13:28:59;2.87;;;1.70;;
20397;SDS011;10358;49.590;11.030;2023-04-03T13:31:42;4.70;;;1.73;;
20397;SDS011;10358;49.590;11.030;2023-04-03T13:36:44;2.87;;;1.80;;
20397;SDS011;10358;49.590;11.030;2023-04-03T13:39:22;2.57;;;1.83;;
20397;SDS011;10358;49.590;11.030;2023-04-03T13:41:58;4.93;;;1.57;;
20397;SDS011;10358;49.590;11.030;2023-04-03T13:44:31;3.70;;;1.60;;
20397;SDS011;10358;49.590;11.030;2023-04-03T13:49:38;3.93;;;1.90;;
20397;SDS011;10358;49.590;11.030;2023-04-03T13:55:02;3.63;;;1.50;;
20397;SDS011;10358;49.590;11.030;2023-04-03T13:57:51;3.93;;;1.90;;
20397;SDS011;10358;49.590;11.030;2023-04-03T14:00:47;2.80;;;1.43;;
20397;SDS011;10358;49.590;11.030;2023-04-03T14:03:39;3.80;;;1.87;;
20397;SDS011;10358;49.590;11.030;2023-04-03T14:06:05;4.40;;;1.77;;
20397;SDS011;10358;49.590;11.030;2023-04-03T14:08:32;3.70;;;1.77;;
20397;SDS011;10358;49.590;11.030;2023-04-03T14:10:57;4.40;;;1.73;;
20397;SDS011;10358;49.590;11.030;2023-04-03T14:13:23;3.70;;;1.80;;
20397;SDS011;10358;49.590;11.030;2023-04-03T14:15:49;4.50;;;1.33;;
20397;SDS011;10358;49.590;11.030;2023-04-03T14:18:16;3.33;;;1.70;;
20397;SDS011;10358;49.590;11.030;2023-04-03T14:20:43;4.37;;;1.63;;
20397;SDS011;10358;49.590;11.030;2023-04-03T14:23:09;4.13;;;1.90;;
20397;SDS011;10358;49.590;11.030;2023-04-03T14:25:35;5.07;;;1.60;;
20397;SDS011;10358;49.590;11.030;2023-04-03T14:28:06;2.43;;;1.40;;
20397;SDS011;10358;49.590;11.030;2023-04-03T14:30:42;3.70;;;1.50;;
20397;SDS011;10358;49.590;11.030;2023-04-03T14:33:10;4.07;;;1.30;;
20397;SDS011;10358;49.590;11.030;2023-04-03T14:35:39;3.67;;;1.60;;
20397;SDS011;10358;49.590;11.030;2023-04-03T14:38:09;3.37;;;1.70;;
20397;SDS011;10358;49.590;11.030;2023-04-03T14:40:43;4.07;;;1.60;;
20397;SDS011;10358;49.590;11.030;2023-04-03T14:43:09;2.60;;;1.63;;
20397;SDS011;10358;49.590;11.030;2023-04-03T14:45:37;4.30;;;1.70;;
20397;SDS011;10358;49.590;11.030;2023-04-03T14:48:04;3.10;;;1.53;;
20397;SDS011;10358;49.590;11.030;2023-04-03T14:50:31;4.13;;;1.70;;
20397;SDS011;10358;49.590;11.030;2023-04-03T14:52:58;5.00;;;1.77;;
20397;SDS011;10358;49.590;11.030;2023-04-03T14:55:24;3.00;;;1.63;;
20397;SDS011;10358;49.590;11.030;2023-04-03T14:57:50;2.83;;;1.73;;
20397;SDS011;10358;49.590;11.030;2023-04-03T15:00:18;3.20;;;1.50;;
20397;SDS011;10358;49.590;11.030;2023-04-03T15:02:46;5.13;;;1.67;;
20397;SDS011;10358;49.590;11.030;2023-04-03T15:05:12;5.63;;;1.73;;
20397;SDS011;10358;49.590;11.030;2023-04-03T15:07:40;2.90;;;1.50;;
20397;SDS011;10358;49.590;11.030;2023-04-03T15:10:15;4.40;;;1.70;;
20397;SDS011;10358;49.590;11.030;2023-04-03T15:12:51;3.27;;;1.40;;
20397;SDS011;10358;49.590;11.030;2023-04-03T15:15:18;5.10;;;1.60;;
20397;SDS011;10358;49.590;11.030;2023-04-03T15:17:45;4.87;;;2.00;;
20397;SDS011;10358;49.590;11.030;2023-04-03T15:20:16;3.77;;;1.70;;
20397;SDS011;10358;49.590;11.030;2023-04-03T15:22:44;4.00;;;1.53;;
20397;SDS011;10358;49.590;11.030;2023-04-03T15:25:10;4.63;;;1.80;;
20397;SDS011;10358;49.590;11.030;2023-04-03T15:27:36;3.37;;;1.80;;
20397;SDS011;10358;49.590;11.030;2023-04-03T15:30:06;4.00;;;1.60;;
20397;SDS011;10358;49.590;11.030;2023-04-03T15:32:36;3.20;;;1.63;;
20397;SDS011;10358;49.590;11.030;2023-04-03T15:35:01;3.07;;;1.53;;
20397;SDS011;10358;49.590;11.030;2023-04-03T15:37:27;3.50;;;1.50;;
20397;SDS011;10358;49.590;11.030;2023-04-03T15:39:53;3.63;;;1.53;;
20397;SDS011;10358;49.590;11.030;2023-04-03T15:42:18;2.53;;;1.30;;
20397;SDS011;10358;49.590;11.030;2023-04-03T15:44:44;3.10;;;1.60;;
20397;SDS011;10358;49.590;11.030;2023-04-03T15:47:10;2.77;;;1.40;;
20397;SDS011;10358;49.590;11.030;2023-04-03T15:49:36;2.03;;;1.40;;
20397;SDS011;10358;49.590;11.030;2023-04-03T15:52:02;3.70;;;1.40;;
20397;SDS011;10358;49.590;11.030;2023-04-03T15:54:28;2.60;;;1.40;;
20397;SDS011;10358;49.590;11.030;2023-04-03T15:56:54;3.38;;;1.60;;
20397;SDS011;10358;49.590;11.030;2023-04-03T15:59:20;3.75;;;1.35;;
20397;SDS011;10358;49.590;11.030;2023-04-03T16:01:46;2.65;;;1.35;;
20397;SDS011;10358;49.590;11.030;2023-04-03T16:04:13;4.35;;;1.40;;
20397;SDS011;10358;49.590;11.030;2023-04-03T16:06:39;3.33;;;1.60;;
20397;SDS011;10358;49.590;11.030;2023-04-03T16:09:05;5.43;;;1.50;;
20397;SDS011;10358;49.590;11.030;2023-04-03T16:11:31;5.53;;;1.30;;
20397;SDS011;10358;49.590;11.030;2023-04-03T16:13:57;3.30;;;1.50;;
20397;SDS011;10358;49.590;11.030;2023-04-03T16:16:23;4.10;;;1.60;;
20397;SDS011;10358;49.590;11.030;2023-04-03T16:18:49;3.50;;;1.75;;
20397;SDS011;10358;49.590;11.030;2023-04-03T16:21:15;2.40;;;1.40;;
20397;SDS011;10358;49.590;11.030;2023-04-03T16:23:42;3.75;;;1.40;;
20397;SDS011;10358;49.590;11.030;2023-04-03T16:26:08;7.22;;;1.55;;
20397;SDS011;10358;49.590;11.030;2023-04-03T16:28:34;3.10;;;1.58;;
20397;SDS011;10358;49.590;11.030;2023-04-03T16:31:00;3.35;;;1.48;;
20397;SDS011;10358;49.590;11.030;2023-04-03T16:33:26;4.03;;;1.63;;